Time;durP1;ratioP1;P1;durP2;ratioP2;P2;SDS_P1;SDS_P2;PMS_P1;PMS_P2;Temp;Humidity;BMP_temperature;BMP_pressure;BME280_temperature;BME280_humidity;BME280_pressure;Samples;Min_cycle;Max_cycle;Signal;HPM_P1;HPM_P2
2021/10/14 00:00:36;;;;;;;;;48.00;36.25;;;;;9.98;67.68;102725.00;5058248;28;46468;-74
2021/10/14 00:03:03;;;;;;;;;44.50;37.00;;;;;9.96;67.53;102721.50;5075645;28;45339;-74
2021/10/14 00:05:28;;;;;;;;;47.00;38.00;;;;;9.95;67.63;102724.13;5059225;28;45372;-74
2021/10/14 00:07:54;;;;;;;;;51.50;39.25;;;;;9.94;67.56;102727.63;5060170;28;45592;-74
2021/10/14 00:10:19;;;;;;;;;48.25;37.50;;;;;9.92;67.65;102724.13;5061655;28;46514;-74
2021/10/14 00:12:44;;;;;;;;;51.25;40.75;;;;;9.92;68.01;102721.50;5058749;28;45468;-74
2021/10/14 00:15:10;;;;;;;;;50.00;39.50;;;;;9.87;68.12;102722.38;5058697;28;47023;-74
2021/10/14 00:17:35;;;;;;;;;51.25;41.00;;;;;9.88;67.79;102728.47;5058647;28;45358;-74
2021/10/14 00:20:00;;;;;;;;;43.25;35.25;;;;;9.86;68.17;102725.88;5061270;28;46771;-74
2021/10/14 00:22:26;;;;;;;;;48.00;38.50;;;;;9.86;68.18;102727.59;5059383;28;45484;-74
2021/10/14 00:24:52;;;;;;;;;54.00;41.25;;;;;9.83;68.34;102725.84;5060806;28;45235;-73
2021/10/14 00:27:18;;;;;;;;;51.25;40.50;;;;;9.82;68.14;102729.38;5059238;28;45412;-73
2021/10/14 00:29:43;;;;;;;;;48.50;39.75;;;;;9.81;68.32;102735.47;5074118;28;46907;-73
2021/10/14 00:32:08;;;;;;;;;50.75;41.75;;;;;9.80;68.18;102731.13;5060603;28;45266;-73
2021/10/14 00:34:34;;;;;;;;;54.75;41.75;;;;;9.81;68.18;102731.97;5058669;28;46964;-74
2021/10/14 00:36:59;;;;;;;;;50.75;40.00;;;;;9.77;68.17;102725.84;5059965;28;45436;-73
2021/10/14 00:39:24;;;;;;;;;52.00;40.00;;;;;9.76;68.58;102726.72;5057975;28;45650;-73
2021/10/14 00:41:50;;;;;;;;;52.00;41.25;;;;;9.76;68.19;102738.09;5058364;28;45553;-73
2021/10/14 00:44:15;;;;;;;;;49.00;40.50;;;;;9.73;67.92;102727.56;5061000;28;45223;-73
2021/10/14 00:46:51;;;;;;;;;50.25;38.25;;;;;9.74;68.66;102731.09;5059333;28;45496;-73
2021/10/14 00:49:17;;;;;;;;;47.25;39.75;;;;;9.70;68.49;102727.59;5058238;28;45670;-73
2021/10/14 00:51:43;;;;;;;;;50.25;41.00;;;;;9.70;68.63;102730.22;5073937;28;45506;-74
2021/10/14 00:54:09;;;;;;;;;51.50;38.00;;;;;9.71;68.19;102728.44;5073827;28;45496;-75
2021/10/14 00:56:34;;;;;;;;;57.00;44.00;;;;;9.70;67.92;102724.06;5075093;28;47089;-75
2021/10/14 00:59:02;;;;;;;;;53.25;41.00;;;;;9.69;68.39;102723.19;5057419;28;45728;-75
2021/10/14 01:01:27;;;;;;;;;50.50;40.50;;;;;9.64;68.52;102710.06;5058277;28;45197;-74
2021/10/14 01:03:53;;;;;;;;;49.50;40.50;;;;;9.65;68.33;102717.06;5056423;28;45231;-74
2021/10/14 01:06:18;;;;;;;;;52.25;39.25;;;;;9.63;68.31;102708.28;5058326;28;46440;-74
2021/10/14 01:08:44;;;;;;;;;50.25;40.00;;;;;9.64;68.50;102714.44;5059778;28;46949;-74
2021/10/14 01:11:11;;;;;;;;;47.75;39.50;;;;;9.61;68.64;102699.53;5059432;28;45363;-73
2021/10/14 01:13:37;;;;;;;;;46.00;39.00;;;;;9.60;68.34;102697.81;5059497;28;45505;-74
2021/10/14 01:16:05;;;;;;;;;53.25;39.75;;;;;9.55;68.60;102702.16;5059599;28;45390;-74
2021/10/14 01:18:31;;;;;;;;;53.00;41.25;;;;;9.57;68.28;102698.66;5057749;28;47343;-74
2021/10/14 01:20:56;;;;;;;;;52.00;41.75;;;;;9.52;68.72;102689.00;5057326;28;45231;-74
2021/10/14 01:23:22;;;;;;;;;49.25;40.50;;;;;9.51;68.53;102689.88;5058808;28;45311;-74
2021/10/14 01:25:48;;;;;;;;;52.00;42.00;;;;;9.53;68.81;102703.91;5059850;28;45432;-74
2021/10/14 01:28:14;;;;;;;;;51.25;41.50;;;;;9.49;68.93;102702.13;5058760;28;48762;-74
2021/10/14 01:30:40;;;;;;;;;52.50;42.00;;;;;9.52;68.91;102702.16;5059344;28;45396;-74
2021/10/14 01:33:06;;;;;;;;;52.50;39.00;;;;;9.47;68.73;102698.63;5058514;28;45227;-74
2021/10/14 01:35:31;;;;;;;;;49.50;40.50;;;;;9.44;68.62;102695.13;5058251;28;45325;-74
2021/10/14 01:37:57;;;;;;;;;50.00;42.00;;;;;9.43;68.56;102695.97;5057280;28;45452;-75
2021/10/14 01:40:22;;;;;;;;;51.50;41.00;;;;;9.43;68.60;102693.34;5060046;28;45362;-75
2021/10/14 01:42:47;;;;;;;;;52.00;42.50;;;;;9.40;68.62;102684.59;5054656;28;45301;-75
2021/10/14 01:45:13;;;;;;;;;48.25;39.75;;;;;9.42;69.02;102688.09;5056925;28;46040;-75
2021/10/14 01:47:39;;;;;;;;;50.25;40.00;;;;;9.38;68.63;102686.34;5057082;28;45346;-75
2021/10/14 01:50:05;;;;;;;;;52.50;43.25;;;;;9.38;68.74;102688.97;5059702;28;45283;-76
2021/10/14 01:52:30;;;;;;;;;53.75;43.50;;;;;9.36;68.58;102694.19;5057454;28;45413;-75
2021/10/14 01:54:56;;;;;;;;;49.50;40.50;;;;;9.37;68.97;102690.72;5059006;28;45453;-75
2021/10/14 01:57:21;;;;;;;;;52.25;39.00;;;;;9.39;68.72;102688.09;5054427;28;48064;-75
2021/10/14 01:59:47;;;;;;;;;49.50;40.75;;;;;9.32;68.78;102682.84;5058817;28;45251;-75
2021/10/14 02:02:12;;;;;;;;;53.00;41.25;;;;;9.37;68.75;102689.84;5056592;28;45428;-74
2021/10/14 02:04:38;;;;;;;;;49.50;40.25;;;;;9.35;68.71;102689.84;5059143;28;45366;-73
2021/10/14 02:07:03;;;;;;;;;54.25;43.75;;;;;9.35;68.95;102681.97;5058881;28;45244;-73
2021/10/14 02:09:29;;;;;;;;;52.50;42.00;;;;;9.32;68.98;102684.56;5057606;28;45204;-73
2021/10/14 02:11:54;;;;;;;;;49.25;41.25;;;;;9.31;69.18;102669.72;5055942;28;45383;-73
2021/10/14 02:14:20;;;;;;;;;48.00;40.25;;;;;9.29;69.21;102676.69;5057146;28;47222;-73
2021/10/14 02:16:45;;;;;;;;;50.00;41.50;;;;;9.25;69.21;102674.94;5057657;28;45444;-74
2021/10/14 02:19:10;;;;;;;;;59.75;46.00;;;;;9.30;69.05;102673.19;5059615;28;45273;-74
2021/10/14 02:21:36;;;;;;;;;50.00;41.50;;;;;9.25;69.22;102670.56;5058020;28;45427;-74
2021/10/14 02:24:01;;;;;;;;;50.50;40.00;;;;;9.25;69.00;102669.69;5058754;28;45477;-74
2021/10/14 02:26:27;;;;;;;;;55.00;43.00;;;;;9.27;69.44;102665.31;5058437;28;46347;-74
2021/10/14 02:28:52;;;;;;;;;48.25;38.25;;;;;9.30;69.31;102665.31;5059268;28;45372;-73
2021/10/14 02:31:18;;;;;;;;;52.50;40.00;;;;;9.29;68.97;102666.19;5054997;28;46091;-74
2021/10/14 02:33:43;;;;;;;;;51.75;41.00;;;;;9.27;69.07;102667.94;5057662;28;45448;-74
2021/10/14 02:36:08;;;;;;;;;47.50;39.75;;;;;9.27;68.73;102663.56;5058466;28;46249;-74
2021/10/14 02:38:34;;;;;;;;;48.50;40.00;;;;;9.29;69.09;102671.44;5058137;28;45314;-74
2021/10/14 02:41:00;;;;;;;;;48.75;41.00;;;;;9.27;69.61;102667.94;5057885;28;45485;-75
2021/10/14 02:43:25;;;;;;;;;50.75;40.50;;;;;9.22;69.16;102660.94;5058542;28;45411;-74
2021/10/14 02:45:51;;;;;;;;;49.50;41.00;;;;;9.25;69.18;102661.81;5056019;28;46290;-75
2021/10/14 02:48:17;;;;;;;;;49.25;39.00;;;;;9.23;69.26;102667.06;5058354;28;45279;-74
2021/10/14 02:50:42;;;;;;;;;48.50;39.00;;;;;9.24;69.48;102668.78;5058993;28;45565;-74
2021/10/14 02:53:08;;;;;;;;;40.50;34.00;;;;;9.19;69.52;102663.53;5055439;28;45341;-74
2021/10/14 02:55:33;;;;;;;;;47.75;39.50;;;;;9.21;69.50;102669.66;5057225;28;45279;-73
2021/10/14 02:57:58;;;;;;;;;45.25;38.75;;;;;9.18;69.73;102664.41;5057357;28;45378;-74
2021/10/14 03:00:24;;;;;;;;;44.50;37.25;;;;;9.21;69.28;102668.81;5058440;28;45512;-74
2021/10/14 03:02:50;;;;;;;;;42.25;35.25;;;;;9.20;69.61;102661.78;5056353;28;47226;-74
2021/10/14 03:05:15;;;;;;;;;39.50;35.00;;;;;9.19;69.24;102663.53;5054727;28;47025;-74
2021/10/14 03:07:40;;;;;;;;;41.50;35.00;;;;;9.18;69.30;102663.53;5058153;28;45175;-74
2021/10/14 03:10:07;;;;;;;;;42.50;35.00;;;;;9.19;69.31;102671.41;5060767;28;45738;-74
2021/10/14 03:12:33;;;;;;;;;39.50;34.50;;;;;9.16;69.09;102660.88;5060184;28;45307;-74
2021/10/14 03:14:58;;;;;;;;;40.00;35.25;;;;;9.16;69.03;102673.16;5062314;28;45473;-73
2021/10/14 03:17:24;;;;;;;;;44.75;35.00;;;;;9.15;69.46;102666.13;5060512;28;45468;-74
2021/10/14 03:19:49;;;;;;;;;49.25;39.25;;;;;9.15;69.47;102671.38;5062783;28;45444;-73
2021/10/14 03:22:14;;;;;;;;;49.75;38.00;;;;;9.09;69.63;102662.63;5061106;28;45551;-73
2021/10/14 03:24:40;;;;;;;;;44.00;37.25;;;;;9.12;69.37;102667.00;5060427;28;45581;-74
2021/10/14 03:27:05;;;;;;;;;50.25;38.00;;;;;9.06;68.93;102664.38;5060291;28;45358;-74
2021/10/14 03:29:31;;;;;;;;;45.25;37.00;;;;;9.10;69.38;102667.00;5060518;28;46615;-74
2021/10/14 03:31:56;;;;;;;;;42.75;35.25;;;;;9.07;69.58;102668.72;5061104;28;45479;-74
2021/10/14 03:34:21;;;;;;;;;48.75;38.75;;;;;9.07;69.42;102668.72;5060349;28;45329;-74
2021/10/14 03:36:47;;;;;;;;;43.75;35.50;;;;;9.06;69.51;102674.84;5060333;28;45449;-74
2021/10/14 03:39:12;;;;;;;;;44.50;38.00;;;;;9.05;69.04;102675.72;5061338;28;45678;-74
2021/10/14 03:41:38;;;;;;;;;47.50;39.00;;;;;9.06;69.30;102682.72;5060885;28;45410;-74
2021/10/14 03:44:04;;;;;;;;;49.00;38.50;;;;;9.00;68.92;102676.56;5060358;28;46481;-74
2021/10/14 03:46:29;;;;;;;;;46.00;38.00;;;;;8.99;69.48;102680.06;5060800;28;45254;-74
2021/10/14 03:48:54;;;;;;;;;49.75;39.75;;;;;9.00;69.10;102679.19;5059281;28;45289;-74
2021/10/14 03:51:20;;;;;;;;;44.00;37.00;;;;;8.98;69.47;102680.94;5057060;28;45482;-74
2021/10/14 03:53:45;;;;;;;;;45.50;38.00;;;;;8.96;69.24;102681.81;5059218;28;46562;-74
2021/10/14 03:56:11;;;;;;;;;49.00;41.25;;;;;8.94;69.40;102680.94;5058421;28;45325;-75
2021/10/14 03:58:36;;;;;;;;;45.50;37.00;;;;;8.91;69.14;102670.41;5048984;28;45499;-75
2021/10/14 04:01:02;;;;;;;;;43.00;36.00;;;;;8.91;69.12;102681.78;5059741;28;45476;-75
2021/10/14 04:03:27;;;;;;;;;45.50;38.50;;;;;8.91;69.17;102676.53;5054978;28;46315;-74
2021/10/14 04:05:53;;;;;;;;;43.50;38.25;;;;;8.85;69.11;102673.88;5058188;28;45243;-76
2021/10/14 04:08:18;;;;;;;;;45.50;38.00;;;;;8.86;69.23;102673.00;5060136;28;45405;-74
2021/10/14 04:10:43;;;;;;;;;43.50;38.00;;;;;8.86;68.86;102678.25;5058932;28;45279;-76
2021/10/14 04:13:09;;;;;;;;;49.25;40.00;;;;;8.85;69.00;102681.72;5058829;28;47042;-74
2021/10/14 04:15:34;;;;;;;;;54.25;42.75;;;;;8.82;69.50;102669.47;5058666;28;46014;-74
2021/10/14 04:17:59;;;;;;;;;49.00;38.25;;;;;8.79;69.11;102674.69;5056536;28;46935;-75
2021/10/14 04:20:25;;;;;;;;;48.00;39.50;;;;;8.78;69.49;102684.34;5058337;28;45623;-74
2021/10/14 04:22:52;;;;;;;;;49.00;39.50;;;;;8.81;69.62;102679.97;5056289;28;46355;-74
2021/10/14 04:25:17;;;;;;;;;49.00;38.75;;;;;8.78;69.48;102684.34;5059682;28;45156;-74
2021/10/14 04:27:43;;;;;;;;;42.00;35.50;;;;;8.79;69.22;102687.81;5059459;28;45291;-74
2021/10/14 04:30:08;;;;;;;;;48.50;37.75;;;;;8.76;69.54;102688.69;5060121;28;45500;-74
2021/10/14 04:32:34;;;;;;;;;41.75;37.25;;;;;8.77;69.62;102681.69;5058802;28;46190;-74
2021/10/14 04:34:59;;;;;;;;;38.75;34.75;;;;;8.76;69.37;102686.06;5059937;28;45362;-74
2021/10/14 04:37:25;;;;;;;;;49.00;39.50;;;;;8.77;69.31;102694.78;5058825;28;45386;-75
2021/10/14 04:39:50;;;;;;;;;52.25;38.25;;;;;8.74;69.37;102679.91;5060988;28;45233;-74
2021/10/14 04:42:16;;;;;;;;;48.00;40.00;;;;;8.77;69.55;102695.69;5059118;28;45457;-76
2021/10/14 04:44:42;;;;;;;;;52.00;42.25;;;;;8.78;69.94;102696.56;5060542;28;45314;-76
2021/10/14 04:47:08;;;;;;;;;51.75;41.00;;;;;8.74;69.52;102684.31;5056726;28;45423;-76
2021/10/14 04:49:34;;;;;;;;;50.00;41.25;;;;;8.77;69.58;102695.69;5060877;28;45349;-76
2021/10/14 04:52:00;;;;;;;;;51.75;40.50;;;;;8.77;69.64;102690.44;5056842;28;47207;-75
2021/10/14 04:54:26;;;;;;;;;50.50;42.00;;;;;8.77;69.63;102682.56;5060884;28;45321;-74
2021/10/14 04:56:51;;;;;;;;;49.00;38.50;;;;;8.76;69.47;102688.69;5057836;28;45574;-74
2021/10/14 04:59:17;;;;;;;;;49.50;40.50;;;;;8.75;69.38;102691.28;5059850;28;45468;-74
2021/10/14 05:01:42;;;;;;;;;48.75;39.25;;;;;8.75;69.78;102692.16;5057457;28;45321;-75
2021/10/14 05:04:08;;;;;;;;;46.50;38.25;;;;;8.74;69.25;102693.03;5059897;28;45133;-76
2021/10/14 05:06:33;;;;;;;;;51.50;39.50;;;;;8.71;69.95;102695.66;5059019;28;45563;-76
2021/10/14 05:08:58;;;;;;;;;51.00;40.25;;;;;8.68;69.96;102687.75;5059902;28;45237;-77
2021/10/14 05:11:24;;;;;;;;;48.25;38.25;;;;;8.65;69.44;102691.22;5059390;28;45236;-76
2021/10/14 05:13:49;;;;;;;;;50.75;39.00;;;;;8.65;69.66;102686.00;5047622;28;45282;-75
2021/10/14 05:16:14;;;;;;;;;53.00;41.75;;;;;8.63;69.52;102684.22;5057050;28;45461;-76
2021/10/14 05:18:40;;;;;;;;;49.75;40.75;;;;;8.65;69.70;102695.59;5059590;28;45164;-76
2021/10/14 05:21:05;;;;;;;;;53.25;40.50;;;;;8.61;69.69;102689.47;5056898;28;45492;-76
2021/10/14 05:23:31;;;;;;;;;46.25;39.00;;;;;8.62;69.54;102698.19;5059610;28;45426;-76
2021/10/14 05:25:56;;;;;;;;;50.00;40.50;;;;;8.62;69.45;102701.69;5058938;28;45215;-76
2021/10/14 05:28:22;;;;;;;;;43.50;38.00;;;;;8.60;69.92;102699.91;5057779;28;46080;-76
2021/10/14 05:30:49;;;;;;;;;47.50;38.25;;;;;8.60;69.53;102697.31;5070620;28;47463;-76
2021/10/14 05:33:14;;;;;;;;;51.00;39.75;;;;;8.62;69.78;102708.66;5051503;28;47060;-76
2021/10/14 05:35:40;;;;;;;;;49.75;41.00;;;;;8.60;70.19;102706.06;5050728;28;45343;-77
2021/10/14 05:38:06;;;;;;;;;43.00;36.25;;;;;8.58;69.99;102702.53;5049499;28;46025;-77
2021/10/14 05:40:32;;;;;;;;;50.25;41.75;;;;;8.60;69.80;102694.69;5049867;28;45590;-77
2021/10/14 05:42:58;;;;;;;;;47.00;39.50;;;;;8.57;70.31;102692.88;5048138;28;46069;-77
2021/10/14 05:45:23;;;;;;;;;50.00;40.00;;;;;8.55;69.84;102694.63;5058976;28;45542;-76
2021/10/14 05:47:49;;;;;;;;;49.25;40.75;;;;;8.59;70.15;102695.56;5056974;28;45534;-76
2021/10/14 05:50:14;;;;;;;;;45.00;36.50;;;;;8.56;70.02;102699.00;5056224;28;45446;-78
2021/10/14 05:52:39;;;;;;;;;50.50;39.75;;;;;8.56;69.88;102696.38;5057109;28;45288;-78
2021/10/14 05:55:05;;;;;;;;;46.00;39.25;;;;;8.58;70.20;102699.00;5056971;28;45259;-81
2021/10/14 05:57:31;;;;;;;;;46.50;37.50;;;;;8.55;69.71;102686.75;5056363;28;45481;-80
2021/10/14 05:59:56;;;;;;;;;45.50;38.75;;;;;8.57;70.05;102699.91;5057869;28;47153;-79
2021/10/14 06:02:22;;;;;;;;;48.75;39.25;;;;;8.54;70.04;102690.25;5058911;28;45512;-79
2021/10/14 06:04:48;;;;;;;;;44.75;38.25;;;;;8.49;70.23;102689.34;5059023;28;45420;-79
2021/10/14 06:07:13;;;;;;;;;48.25;38.75;;;;;8.52;69.92;102687.59;5071282;28;46076;-79
2021/10/14 06:09:40;;;;;;;;;43.00;37.25;;;;;8.49;69.59;102684.09;5057937;28;46312;-79
2021/10/14 06:12:06;;;;;;;;;51.75;43.00;;;;;8.52;69.43;102694.63;5055949;28;46049;-80
2021/10/14 06:14:31;;;;;;;;;41.25;37.25;;;;;8.49;69.73;102691.97;5058357;28;45369;-78
2021/10/14 06:16:56;;;;;;;;;49.75;39.25;;;;;8.47;69.77;102691.94;5056784;28;45834;-79
2021/10/14 06:19:22;;;;;;;;;44.50;36.50;;;;;8.46;70.41;102684.06;5058408;28;45354;-79
2021/10/14 06:21:47;;;;;;;;;46.75;38.75;;;;;8.50;69.77;102694.59;5071016;28;45479;-80
2021/10/14 06:24:14;;;;;;;;;45.25;38.25;;;;;8.50;69.88;102689.34;5056129;28;45316;-79
2021/10/14 06:26:39;;;;;;;;;44.25;36.00;;;;;8.49;69.94;102692.84;5059139;28;45271;-78
2021/10/14 06:29:04;;;;;;;;;49.25;39.75;;;;;8.51;70.62;102690.22;5058006;28;45415;-79
2021/10/14 06:31:30;;;;;;;;;44.75;36.75;;;;;8.51;70.23;102693.72;5058189;28;45457;-79
2021/10/14 06:33:55;;;;;;;;;43.75;36.00;;;;;8.52;70.12;102698.09;5058869;28;45261;-78
2021/10/14 06:36:20;;;;;;;;;46.00;36.00;;;;;8.51;70.42;102693.72;5055166;28;45507;-79
2021/10/14 06:38:46;;;;;;;;;46.25;35.50;;;;;8.51;70.12;102680.63;5057861;28;45306;-79
2021/10/14 06:41:13;;;;;;;;;48.00;38.25;;;;;8.56;70.37;102691.16;5053580;28;45312;-79
2021/10/14 06:43:39;;;;;;;;;48.50;39.00;;;;;8.53;70.21;102685.88;5054324;28;45362;-79
2021/10/14 06:46:04;;;;;;;;;46.00;35.75;;;;;8.55;70.37;102687.63;5061837;28;45484;-79
2021/10/14 06:48:30;;;;;;;;;49.75;40.75;;;;;8.55;70.44;102679.78;5062462;28;46276;-79
2021/10/14 06:50:55;;;;;;;;;49.50;41.75;;;;;8.57;70.57;102682.41;5061271;28;45464;-79
2021/10/14 06:53:20;;;;;;;;;49.50;39.25;;;;;8.62;70.67;102692.94;5062943;28;45849;-79
2021/10/14 06:55:46;;;;;;;;;52.50;42.00;;;;;8.61;70.37;102678.97;5061415;28;45416;-79
2021/10/14 06:58:11;;;;;;;;;47.75;39.50;;;;;8.65;70.65;102691.22;5061384;28;45468;-79
2021/10/14 07:00:37;;;;;;;;;51.00;38.25;;;;;8.67;70.86;102688.59;5060136;28;45453;-79
2021/10/14 07:03:03;;;;;;;;;46.75;36.75;;;;;8.69;71.14;102691.25;5060682;28;45721;-79
2021/10/14 07:05:28;;;;;;;;;48.75;38.50;;;;;8.66;70.46;102684.25;5062424;28;45157;-79
2021/10/14 07:07:54;;;;;;;;;50.00;38.25;;;;;8.73;70.84;102690.41;5062085;28;45492;-79
2021/10/14 07:10:21;;;;;;;;;42.75;36.00;;;;;8.73;71.04;102690.41;5061365;28;45274;-79
2021/10/14 07:12:46;;;;;;;;;46.25;38.75;;;;;8.75;71.40;102692.16;5062137;28;45471;-79
2021/10/14 07:15:12;;;;;;;;;48.75;39.50;;;;;8.81;71.02;102695.69;5059599;28;45448;-79
2021/10/14 07:17:37;;;;;;;;;43.00;37.00;;;;;8.81;70.69;102696.59;5062102;28;46339;-79
2021/10/14 07:20:05;;;;;;;;;48.00;38.00;;;;;8.83;71.24;102688.72;5060274;28;45535;-79
2021/10/14 07:22:30;;;;;;;;;49.00;37.25;;;;;8.83;71.24;102688.72;5074004;27;45490;-79
2021/10/14 07:24:55;;;;;;;;;45.50;38.00;;;;;8.87;71.02;102690.47;5061805;28;45398;-79
2021/10/14 07:27:21;;;;;;;;;52.75;42.00;;;;;8.88;71.00;102682.66;5061941;28;46394;-79
2021/10/14 07:29:46;;;;;;;;;52.50;39.50;;;;;8.89;70.94;102684.38;5062053;28;45327;-79
2021/10/14 07:32:13;;;;;;;;;54.00;43.50;;;;;8.92;70.80;102680.91;5062009;28;45540;-79
2021/10/14 07:34:39;;;;;;;;;48.75;41.50;;;;;8.96;71.14;102682.66;5061303;28;45543;-79
2021/10/14 07:37:06;;;;;;;;;54.50;41.00;;;;;9.00;71.44;102680.94;5060425;28;46324;-79
2021/10/14 07:39:32;;;;;;;;;51.00;39.00;;;;;9.02;71.35;102680.94;5061817;28;45234;-79
2021/10/14 07:41:57;;;;;;;;;52.50;41.25;;;;;9.05;71.60;102684.47;5060769;28;45409;-79
2021/10/14 07:44:23;;;;;;;;;54.25;41.00;;;;;9.09;71.44;102680.09;5061105;28;45366;-80
2021/10/14 07:46:49;;;;;;;;;52.25;40.50;;;;;9.17;71.49;102694.13;5059682;28;47945;-80
2021/10/14 07:49:16;;;;;;;;;55.50;41.75;;;;;9.18;71.36;102679.28;5061725;28;45353;-80
2021/10/14 07:51:41;;;;;;;;;54.50;43.00;;;;;9.18;71.15;102676.66;5061681;28;45354;-80
2021/10/14 07:54:07;;;;;;;;;55.75;42.75;;;;;9.22;71.61;102676.66;5060810;28;45458;-80
2021/10/14 07:56:32;;;;;;;;;52.25;42.50;;;;;9.26;71.24;102681.94;5060050;28;45272;-80
2021/10/14 07:58:58;;;;;;;;;56.00;43.75;;;;;9.28;71.49;102678.44;5060311;28;45243;-80
2021/10/14 08:01:24;;;;;;;;;53.50;41.75;;;;;9.35;71.11;102684.59;5060414;28;45239;-80
2021/10/14 08:03:50;;;;;;;;;53.25;43.25;;;;;9.37;71.51;102676.72;5060921;28;45421;-81
2021/10/14 08:06:16;;;;;;;;;56.25;42.25;;;;;9.42;71.28;102683.75;5061242;28;45306;-80
2021/10/14 08:08:41;;;;;;;;;55.75;44.25;;;;;9.51;71.50;102689.88;5055016;28;45633;-80
2021/10/14 08:11:08;;;;;;;;;54.25;44.50;;;;;9.55;71.36;102683.78;5051224;28;45775;-80
2021/10/14 08:13:34;;;;;;;;;54.00;43.50;;;;;9.59;71.23;102688.16;5057160;28;46174;-80
2021/10/14 08:16:00;;;;;;;;;53.00;42.50;;;;;9.59;71.07;102672.41;5060951;28;46705;-80
2021/10/14 08:18:26;;;;;;;;;53.00;42.00;;;;;9.65;71.12;102675.06;5059821;28;45450;-80
2021/10/14 08:20:57;;;;;;;;;48.75;38.75;;;;;9.73;70.96;102682.94;5060613;28;45378;-80
2021/10/14 08:23:23;;;;;;;;;44.00;37.75;;;;;9.75;71.03;102677.69;5060194;28;45295;-80
2021/10/14 08:25:49;;;;;;;;;54.25;43.50;;;;;9.81;70.72;102675.06;5059621;28;45604;-80
2021/10/14 08:28:16;;;;;;;;;49.75;41.75;;;;;9.90;71.02;102679.47;5060917;28;45992;-80
2021/10/14 08:30:42;;;;;;;;;48.00;40.75;;;;;9.90;70.55;102680.34;5060373;28;45374;-80
2021/10/14 08:33:08;;;;;;;;;50.75;40.75;;;;;9.95;70.83;102677.69;5058251;28;45382;-80
2021/10/14 08:35:37;;;;;;;;;52.75;41.50;;;;;9.98;70.15;102671.59;5060209;28;45816;-81
2021/10/14 08:38:07;;;;;;;;;48.50;40.25;;;;;10.10;70.68;102689.97;5059580;28;45965;-80
2021/10/14 08:40:33;;;;;;;;;45.75;38.25;;;;;10.11;70.22;102672.47;5052902;28;45210;-81
2021/10/14 08:43:05;;;;;;;;;48.50;40.00;;;;;10.21;69.93;102675.97;5060772;28;45307;-80
2021/10/14 08:45:35;;;;;;;;;47.75;38.00;;;;;10.26;69.45;102679.47;5059187;28;45671;-80
2021/10/14 08:48:05;;;;;;;;;47.75;39.00;;;;;10.30;69.52;102669.81;5076127;28;45420;-81
2021/10/14 08:50:37;;;;;;;;;47.50;39.75;;;;;10.39;69.75;102676.84;5061209;28;45257;-81
2021/10/14 08:53:04;;;;;;;;;42.75;34.75;;;;;10.43;69.66;102668.06;5059535;28;45568;-80
2021/10/14 08:55:31;;;;;;;;;41.50;37.00;;;;;10.45;69.90;102661.94;5059879;28;45444;-81
2021/10/14 08:57:57;;;;;;;;;49.00;37.25;;;;;10.52;69.26;102667.22;5059497;28;45479;-81
2021/10/14 09:00:23;;;;;;;;;47.75;38.00;;;;;10.58;69.66;102669.84;5059455;28;45360;-81
2021/10/14 09:02:48;;;;;;;;;45.50;38.00;;;;;10.63;69.63;102664.56;5059633;28;45448;-81
2021/10/14 09:05:15;;;;;;;;;48.25;40.50;;;;;10.65;69.14;102663.69;5058895;28;47674;-81
2021/10/14 09:07:41;;;;;;;;;47.25;38.25;;;;;10.71;69.26;102659.28;5058511;28;45693;-81
2021/10/14 09:10:12;;;;;;;;;46.75;38.00;;;;;10.76;69.02;102658.41;5059638;28;45357;-81
2021/10/14 09:12:40;;;;;;;;;46.25;37.25;;;;;10.83;68.91;102661.00;5057419;28;46983;-81
2021/10/14 09:15:17;;;;;;;;;47.00;38.00;;;;;10.87;68.67;102653.09;5058754;28;45699;-82
2021/10/14 09:17:53;;;;;;;;;43.25;35.75;;;;;10.98;68.78;102660.09;5060112;28;45350;-80
2021/10/14 09:20:36;;;;;;;;;49.25;39.25;;;;;11.03;68.79;102664.47;5059735;28;45431;-81
2021/10/14 09:23:11;;;;;;;;;46.75;36.75;;;;;11.08;68.59;102655.66;5057876;28;45987;-81
2021/10/14 09:25:48;;;;;;;;;47.50;39.00;;;;;11.18;68.75;102660.00;5058439;28;46914;-82
2021/10/14 09:28:25;;;;;;;;;43.75;35.25;;;;;11.23;67.98;102660.88;5057507;28;45429;-82
2021/10/14 09:31:06;;;;;;;;;46.25;35.25;;;;;11.27;68.40;102645.03;5059385;28;45440;-82
2021/10/14 09:33:47;;;;;;;;;47.00;36.75;;;;;11.31;68.55;102650.28;5056518;28;45648;-82
2021/10/14 09:36:23;;;;;;;;;35.25;33.00;;;;;11.41;68.49;102651.09;5056415;28;45354;-82
2021/10/14 09:38:57;;;;;;;;;41.50;34.00;;;;;11.40;68.06;102636.22;5063594;28;45335;-82
2021/10/14 09:41:24;;;;;;;;;37.00;32.50;;;;;11.48;67.63;102644.06;5056702;28;45443;-82
2021/10/14 09:43:53;;;;;;;;;35.25;30.00;;;;;11.54;68.04;102644.00;5072194;28;47113;-82
2021/10/14 09:46:50;;;;;;;;;36.00;29.75;;;;;11.64;68.00;102643.94;5059071;28;45405;-82
2021/10/14 09:49:32;;;;;;;;;34.00;30.00;;;;;11.68;68.20;102637.78;5048453;28;45541;-82
2021/10/14 09:52:02;;;;;;;;;35.25;29.75;;;;;11.74;67.81;102640.38;5059340;28;45663;-82
2021/10/14 09:54:29;;;;;;;;;31.50;30.00;;;;;11.79;67.63;102638.56;5058592;28;45485;-82
2021/10/14 09:56:55;;;;;;;;;35.25;31.00;;;;;11.85;67.40;102628.88;5057173;28;46905;-82
2021/10/14 09:59:20;;;;;;;;;29.50;24.00;;;;;11.90;67.26;102630.56;5059464;28;45537;-82
2021/10/14 10:01:49;;;;;;;;;21.50;21.00;;;;;11.96;66.94;102623.50;5058050;28;45529;-80
2021/10/14 10:04:15;;;;;;;;;22.50;20.50;;;;;12.02;67.02;102627.00;5048399;28;45375;-80
2021/10/14 10:06:42;;;;;;;;;23.25;21.25;;;;;12.10;66.68;102618.13;5058685;28;45544;-80
2021/10/14 10:09:16;;;;;;;;;25.25;19.00;;;;;12.12;66.76;102611.94;5057234;28;45180;-80
2021/10/14 10:11:53;;;;;;;;;24.00;20.25;;;;;12.17;66.60;102611.94;5053116;28;45452;-81
2021/10/14 10:14:24;;;;;;;;;20.50;16.50;;;;;12.21;66.93;102607.50;5056327;28;45350;-80
2021/10/14 10:17:02;;;;;;;;;18.75;17.50;;;;;12.26;65.73;102603.06;5057132;28;46618;-80
2021/10/14 10:19:48;;;;;;;;;22.00;15.00;;;;;12.31;65.99;102600.38;5057139;28;45317;-81
2021/10/14 10:22:35;;;;;;;;;16.00;14.00;;;;;12.40;65.42;102602.03;5056641;28;46650;-81
2021/10/14 10:25:22;;;;;;;;;12.75;12.75;;;;;12.44;65.57;102595.84;5060125;28;45574;-81
2021/10/14 10:27:48;;;;;;;;;13.50;11.75;;;;;12.42;65.12;102584.44;5057587;28;45789;-81
2021/10/14 10:30:26;;;;;;;;;19.25;15.50;;;;;12.53;65.07;102592.22;5058641;28;46974;-81
2021/10/14 10:32:51;;;;;;;;;14.50;12.00;;;;;12.54;64.98;102586.06;5056879;28;45576;-81
2021/10/14 10:35:39;;;;;;;;;16.75;13.50;;;;;12.57;65.05;102576.34;5058228;28;45481;-81
2021/10/14 10:38:14;;;;;;;;;16.00;12.75;;;;;12.64;64.50;102573.66;5058949;28;45311;-81
2021/10/14 10:40:41;;;;;;;;;14.50;14.50;;;;;12.66;64.17;102577.13;5058036;28;45220;-81
2021/10/14 10:43:09;;;;;;;;;14.75;11.75;;;;;12.71;64.30;102581.47;5058834;28;45294;-80
2021/10/14 10:45:41;;;;;;;;;15.25;10.50;;;;;12.81;64.07;102578.72;5058564;28;45462;-80
2021/10/14 10:48:07;;;;;;;;;13.50;11.00;;;;;12.78;64.96;102566.44;5072916;28;47595;-80
2021/10/14 10:50:32;;;;;;;;;9.00;9.00;;;;;12.91;64.00;102576.81;5058115;28;45330;-80
2021/10/14 10:53:02;;;;;;;;;13.67;10.67;;;;;12.93;63.34;102575.91;5058045;28;45327;-80
2021/10/14 10:55:28;;;;;;;;;15.50;13.00;;;;;12.97;63.55;102571.44;5058014;28;45435;-80
2021/10/14 10:57:55;;;;;;;;;13.25;11.25;;;;;12.97;63.85;102555.63;5058389;28;45410;-80
2021/10/14 11:00:23;;;;;;;;;12.75;11.00;;;;;13.00;63.77;102555.59;5058337;28;45635;-80
2021/10/14 11:03:25;;;;;;;;;15.25;12.00;;;;;13.09;63.54;102565.13;5058258;28;45456;-80
2021/10/14 11:05:56;;;;;;;;;12.50;10.25;;;;;13.13;63.24;102560.69;5049199;28;45336;-80
2021/10/14 11:08:30;;;;;;;;;14.00;13.75;;;;;13.14;62.63;102557.13;5058281;28;45381;-80
2021/10/14 11:10:58;;;;;;;;;15.75;14.00;;;;;13.19;62.82;102546.50;5057379;28;45306;-80
2021/10/14 11:13:27;;;;;;;;;12.75;12.75;;;;;13.22;63.12;102546.47;5057911;28;45255;-81